Time;durP1;ratioP1;P1;durP2;ratioP2;P2;SDS_P1;SDS_P2;PMS_P1;PMS_P2;Temp;Humidity;BMP_temperature;BMP_pressure;BME280_temperature;BME280_humidity;BME280_pressure;Samples;Min_cycle;Max_cycle;Signal;HPM_P1;HPM_P2
2024/04/21 00:00:16;;;;;;;3.05;1.75;;;13.90;94.70;;;;;;5417828;26;20045;-40
2024/04/21 00:02:41;;;;;;;2.83;1.60;;;13.90;94.70;;;;;;5418953;26;20000;-41
2024/04/21 00:05:08;;;;;;;2.67;1.90;;;13.90;94.70;;;;;;5419078;26;20094;-41
2024/04/21 00:07:33;;;;;;;3.70;1.67;;;13.80;94.70;;;;;;5419349;26;20129;-40
2024/04/21 00:09:59;;;;;;;2.95;1.75;;;13.90;94.70;;;;;;5419239;26;20011;-43
2024/04/21 00:12:24;;;;;;;3.80;2.00;;;13.80;94.70;;;;;;5418681;26;20010;-40
2024/04/21 00:14:50;;;;;;;1.73;1.25;;;13.80;94.70;;;;;;5418699;26;19995;-41
2024/04/21 00:17:16;;;;;;;2.95;1.70;;;13.80;94.80;;;;;;5418261;26;20419;-41
2024/04/21 00:19:42;;;;;;;2.35;1.50;;;13.80;94.80;;;;;;5418412;26;19999;-41
2024/04/21 00:22:07;;;;;;;2.75;1.80;;;13.80;94.80;;;;;;5418111;26;19995;-43
2024/04/21 00:24:33;;;;;;;2.33;1.38;;;13.80;94.70;;;;;;5418276;26;20006;-46
2024/04/21 00:26:58;;;;;;;2.13;1.30;;;13.80;94.70;;;;;;5419123;26;20023;-41
2024/04/21 00:29:24;;;;;;;2.63;1.27;;;13.80;94.70;;;;;;5418485;26;19992;-41
2024/04/21 00:31:49;;;;;;;3.20;1.35;;;13.80;94.70;;;;;;5418431;26;20000;-40
2024/04/21 00:34:15;;;;;;;1.70;1.30;;;13.80;94.70;;;;;;5418331;26;19995;-40
2024/04/21 00:36:41;;;;;;;2.83;1.42;;;13.80;94.70;;;;;;5419184;26;20007;-41
2024/04/21 00:39:07;;;;;;;2.03;1.25;;;13.80;94.70;;;;;;5418580;26;20007;-43
2024/04/21 00:41:33;;;;;;;2.35;1.30;;;13.80;94.70;;;;;;5418437;26;19995;-41
2024/04/21 00:43:59;;;;;;;2.30;1.38;;;13.80;94.70;;;;;;5419101;26;20006;-43
2024/04/21 00:46:25;;;;;;;1.77;1.30;;;13.80;94.70;;;;;;5418674;26;19999;-42
2024/04/21 00:48:53;;;;;;;2.00;1.33;;;13.80;94.70;;;;;;5418126;26;20467;-40
2024/04/21 00:51:20;;;;;;;2.08;1.23;;;13.80;94.70;;;;;;5416314;26;20002;-43
2024/04/21 00:53:47;;;;;;;1.52;1.00;;;13.70;94.70;;;;;;5418002;26;20000;-42
2024/04/21 00:56:21;;;;;;;1.63;1.10;;;13.80;94.80;;;;;;5418329;26;20333;-40
2024/04/21 00:58:48;;;;;;;1.98;1.20;;;13.70;94.80;;;;;;5418192;26;20004;-40
2024/04/21 01:01:14;;;;;;;1.95;1.10;;;13.70;94.70;;;;;;5417651;26;20023;-41
2024/04/21 01:03:40;;;;;;;1.75;1.20;;;13.80;94.80;;;;;;5418804;26;20003;-41
2024/04/21 01:06:06;;;;;;;1.40;1.00;;;13.80;94.80;;;;;;5417855;26;19996;-41
2024/04/21 01:08:31;;;;;;;2.65;1.30;;;13.80;94.70;;;;;;5417663;26;19995;-41
2024/04/21 01:10:57;;;;;;;1.92;1.05;;;13.70;94.70;;;;;;5417202;26;20009;-41
2024/04/21 01:13:23;;;;;;;1.73;1.10;;;13.70;94.70;;;;;;5418460;26;20084;-43
2024/04/21 01:15:52;;;;;;;2.08;1.00;;;13.70;94.70;;;;;;5418187;26;20080;-42
2024/04/21 01:18:18;;;;;;;2.53;1.30;;;13.70;94.70;;;;;;5417716;26;20010;-41
2024/04/21 01:20:45;;;;;;;1.65;1.02;;;13.70;94.70;;;;;;5418300;26;20456;-41
2024/04/21 01:23:14;;;;;;;1.65;0.95;;;13.70;94.80;;;;;;5417910;26;20010;-41
2024/04/21 01:25:40;;;;;;;1.50;0.98;;;13.70;94.80;;;;;;5417679;26;20468;-41
2024/04/21 01:28:06;;;;;;;1.35;0.95;;;13.70;94.80;;;;;;5418091;26;20471;-42
2024/04/21 01:30:32;;;;;;;2.33;1.00;;;13.70;94.80;;;;;;5417361;26;20000;-40
2024/04/21 01:32:58;;;;;;;2.10;1.10;;;13.70;94.80;;;;;;5418164;26;19996;-42
2024/04/21 01:35:24;;;;;;;2.10;1.00;;;13.70;94.80;;;;;;5417500;26;20014;-41
2024/04/21 01:37:50;;;;;;;2.08;1.10;;;13.70;94.80;;;;;;5417774;26;19995;-40
2024/04/21 01:40:19;;;;;;;1.08;0.77;;;13.70;94.70;;;;;;5418107;26;20459;-41
2024/04/21 01:42:45;;;;;;;1.33;0.98;;;13.70;94.70;;;;;;5415904;26;20460;-43
2024/04/21 01:45:10;;;;;;;1.25;1.00;;;13.70;94.80;;;;;;5417233;26;20007;-42
2024/04/21 01:47:36;;;;;;;1.45;1.00;;;13.70;94.80;;;;;;5417160;26;19996;-40
2024/04/21 01:50:02;;;;;;;1.45;1.05;;;13.70;94.80;;;;;;5417549;26;19996;-41
2024/04/21 01:52:27;;;;;;;1.75;0.88;;;13.70;94.80;;;;;;5416643;26;20007;-41
2024/04/21 01:54:53;;;;;;;1.52;0.82;;;13.70;94.80;;;;;;5416781;26;20000;-41
2024/04/21 01:57:19;;;;;;;1.33;0.88;;;13.70;94.80;;;;;;5417515;26;20000;-41
2024/04/21 01:59:44;;;;;;;1.95;1.25;;;13.70;94.80;;;;;;5416935;26;20472;-40
2024/04/21 02:02:10;;;;;;;1.40;0.90;;;13.70;94.90;;;;;;5417542;26;20341;-40
2024/04/21 02:04:36;;;;;;;1.88;0.93;;;13.70;94.90;;;;;;5417182;26;20010;-39
2024/04/21 02:07:01;;;;;;;1.63;1.00;;;13.70;94.90;;;;;;5417314;26;20007;-40
2024/04/21 02:09:27;;;;;;;1.27;0.95;;;13.70;94.80;;;;;;5417429;26;20026;-40
2024/04/21 02:11:52;;;;;;;1.70;1.00;;;13.70;95.20;;;;;;5417641;26;20007;-42
2024/04/21 02:14:18;;;;;;;1.05;0.70;;;13.70;94.80;;;;;;5417143;26;20014;-39
2024/04/21 02:16:44;;;;;;;2.13;1.10;;;13.60;94.80;;;;;;5416925;26;20097;-45
2024/04/21 02:19:10;;;;;;;0.93;0.75;;;13.60;94.80;;;;;;5417367;26;19999;-41
2024/04/21 02:21:35;;;;;;;1.75;0.98;;;13.60;94.80;;;;;;5415544;26;19996;-40
2024/04/21 02:24:01;;;;;;;2.00;1.05;;;13.60;94.80;;;;;;5416495;26;20332;-41
2024/04/21 02:26:27;;;;;;;1.33;0.93;;;13.60;94.80;;;;;;5417124;26;20011;-41
2024/04/21 02:28:53;;;;;;;1.55;0.85;;;13.60;94.80;;;;;;5417332;26;19999;-41
2024/04/21 02:31:19;;;;;;;1.50;0.95;;;13.60;94.80;;;;;;5416322;26;19995;-43
2024/04/21 02:33:45;;;;;;;2.15;0.85;;;13.60;94.80;;;;;;5416982;26;20007;-42
2024/04/21 02:36:10;;;;;;;2.15;0.95;;;13.60;94.80;;;;;;5416922;26;20000;-44
2024/04/21 02:38:37;;;;;;;2.10;1.00;;;13.60;94.80;;;;;;5417101;26;19995;-40
2024/04/21 02:41:03;;;;;;;1.13;0.70;;;13.60;94.80;;;;;;5417492;26;20220;-43
2024/04/21 02:43:29;;;;;;;1.75;0.80;;;13.60;94.80;;;;;;5416927;26;20000;-40
2024/04/21 02:45:54;;;;;;;1.67;0.95;;;13.60;94.80;;;;;;5417446;26;20008;-41
2024/04/21 02:48:22;;;;;;;1.42;0.80;;;13.60;94.90;;;;;;5416888;26;20006;-41
2024/04/21 02:50:50;;;;;;;1.33;0.90;;;13.60;94.80;;;;;;5416582;26;20436;-41
2024/04/21 02:53:15;;;;;;;2.53;1.10;;;13.60;94.80;;;;;;5416455;26;20000;-41
2024/04/21 02:55:44;;;;;;;1.52;0.77;;;13.60;94.90;;;;;;5416609;26;20483;-40
2024/04/21 02:58:10;;;;;;;1.90;1.00;;;13.50;94.90;;;;;;5416062;26;20027;-41
2024/04/21 03:00:39;;;;;;;1.08;0.80;;;13.50;94.90;;;;;;5416792;26;20009;-41
2024/04/21 03:03:05;;;;;;;1.48;0.80;;;13.50;94.90;;;;;;5417065;26;19999;-41
2024/04/21 03:05:31;;;;;;;2.38;0.80;;;13.60;94.90;;;;;;5416651;26;20007;-41
2024/04/21 03:07:57;;;;;;;1.95;0.93;;;13.50;94.90;;;;;;5416627;26;19992;-40
2024/04/21 03:10:23;;;;;;;1.73;0.82;;;13.60;95.00;;;;;;5417274;26;20035;-40
2024/04/21 03:12:49;;;;;;;1.42;0.80;;;13.50;94.90;;;;;;5416493;26;20072;-41
2024/04/21 03:15:14;;;;;;;1.27;0.80;;;13.50;94.90;;;;;;5415999;26;19991;-40
2024/04/21 03:17:40;;;;;;;1.75;0.90;;;13.50;94.90;;;;;;5416305;26;19996;-41
2024/04/21 03:20:06;;;;;;;1.55;0.65;;;13.50;94.90;;;;;;5416312;26;20015;-40
2024/04/21 03:22:32;;;;;;;1.67;1.00;;;13.50;95.00;;;;;;5416564;26;19995;-40
2024/04/21 03:24:58;;;;;;;2.83;1.05;;;13.50;95.00;;;;;;5415674;26;20341;-40
2024/04/21 03:27:25;;;;;;;1.80;0.80;;;13.50;95.00;;;;;;5416700;26;20003;-41
2024/04/21 03:29:51;;;;;;;1.25;0.77;;;13.50;95.00;;;;;;5415879;26;19999;-41
2024/04/21 03:32:17;;;;;;;1.98;0.90;;;13.50;95.00;;;;;;5415696;26;20011;-41
2024/04/21 03:34:45;;;;;;;1.67;0.98;;;13.40;95.00;;;;;;5419603;26;19999;-40
2024/04/21 03:37:11;;;;;;;1.08;0.70;;;13.40;95.10;;;;;;5418779;26;20069;-41
2024/04/21 03:39:36;;;;;;;2.20;0.82;;;13.40;95.10;;;;;;5419108;26;20000;-41
2024/04/21 03:42:02;;;;;;;2.10;0.80;;;13.40;95.10;;;;;;5419085;26;20350;-39
2024/04/21 03:44:28;;;;;;;2.45;0.70;;;13.40;95.10;;;;;;5419950;26;20015;-41
2024/04/21 03:46:53;;;;;;;1.38;0.80;;;13.40;95.10;;;;;;5419235;26;20459;-41
2024/04/21 03:49:19;;;;;;;1.63;0.85;;;13.40;95.10;;;;;;5418867;26;19995;-40
2024/04/21 03:51:45;;;;;;;2.38;1.08;;;13.40;95.10;;;;;;5418567;26;20352;-41
2024/04/21 03:54:11;;;;;;;3.47;0.90;;;13.40;95.10;;;;;;5418369;26;19999;-41
2024/04/21 03:56:38;;;;;;;3.00;0.70;;;13.40;95.10;;;;;;5418956;26;20325;-40
2024/04/21 03:59:03;;;;;;;1.05;0.55;;;13.40;95.10;;;;;;5419238;26;19999;-39
2024/04/21 04:01:29;;;;;;;2.10;0.90;;;13.40;95.10;;;;;;5418723;26;20345;-41
2024/04/21 04:03:54;;;;;;;1.50;0.80;;;13.40;95.10;;;;;;5418310;26;20000;-40
2024/04/21 04:06:21;;;;;;;1.80;0.80;;;13.40;95.20;;;;;;5419397;26;20010;-40
2024/04/21 04:08:47;;;;;;;1.40;0.63;;;13.40;95.20;;;;;;5418825;26;20497;-41
2024/04/21 04:11:13;;;;;;;0.80;0.60;;;13.40;95.20;;;;;;5418998;26;20006;-40
2024/04/21 04:13:38;;;;;;;1.35;0.63;;;13.40;95.20;;;;;;5418539;26;20000;-41
2024/04/21 04:16:05;;;;;;;1.52;0.80;;;13.40;95.10;;;;;;5419015;26;20028;-41
2024/04/21 04:18:30;;;;;;;3.60;0.90;;;13.40;95.20;;;;;;5418583;26;19996;-40
2024/04/21 04:20:56;;;;;;;2.47;0.60;;;13.40;95.20;;;;;;5418845;26;19995;-41
2024/04/21 04:23:21;;;;;;;2.30;0.85;;;13.40;95.10;;;;;;5418606;26;20000;-40
2024/04/21 04:25:48;;;;;;;2.35;0.85;;;13.40;95.10;;;;;;5418745;26;20488;-41
2024/04/21 04:28:13;;;;;;;1.60;0.90;;;13.40;95.50;;;;;;5418501;26;19995;-41
2024/04/21 04:30:40;;;;;;;2.15;0.70;;;13.40;95.10;;;;;;5419092;26;19995;-41
2024/04/21 04:33:06;;;;;;;2.30;0.60;;;13.40;95.20;;;;;;5418608;26;20006;-40
2024/04/21 04:35:32;;;;;;;2.55;0.63;;;13.40;95.20;;;;;;5419080;26;20383;-40
2024/04/21 04:37:58;;;;;;;1.08;0.70;;;13.40;95.10;;;;;;5418844;26;20515;-39
2024/04/21 04:40:23;;;;;;;2.45;0.85;;;13.40;95.10;;;;;;5418215;26;19999;-41
2024/04/21 04:42:49;;;;;;;1.20;0.70;;;13.40;95.10;;;;;;5417876;26;20329;-41
2024/04/21 04:45:15;;;;;;;1.02;0.50;;;13.30;95.10;;;;;;5417351;26;20348;-40
2024/04/21 04:47:41;;;;;;;1.92;0.70;;;13.30;95.10;;;;;;5417630;26;20428;-39
2024/04/21 04:50:07;;;;;;;1.40;0.55;;;13.30;95.10;;;;;;5418241;26;20510;-40
2024/04/21 04:52:34;;;;;;;1.95;0.68;;;13.30;95.00;;;;;;5418239;26;19999;-40
2024/04/21 04:55:01;;;;;;;2.88;0.80;;;13.30;95.40;;;;;;5418466;26;20471;-40
2024/04/21 04:57:27;;;;;;;2.38;0.93;;;13.30;95.10;;;;;;5418000;26;20471;-41
2024/04/21 04:59:53;;;;;;;2.05;0.70;;;13.30;95.10;;;;;;5418414;26;19999;-40
2024/04/21 05:02:18;;;;;;;1.90;0.70;;;13.30;95.10;;;;;;5418475;26;20007;-41
2024/04/21 05:04:44;;;;;;;2.60;0.60;;;13.30;95.10;;;;;;5419307;26;20658;-41
2024/04/21 05:07:10;;;;;;;2.30;1.02;;;13.30;95.10;;;;;;5418132;26;20005;-40
2024/04/21 05:09:36;;;;;;;1.48;0.73;;;13.30;95.10;;;;;;5418842;26;19995;-41
2024/04/21 05:12:01;;;;;;;2.45;0.95;;;13.30;95.10;;;;;;5418098;26;19995;-40
2024/04/21 05:14:27;;;;;;;1.85;0.90;;;13.30;95.10;;;;;;5417653;26;19995;-40
2024/04/21 05:16:52;;;;;;;2.30;1.00;;;13.30;95.10;;;;;;5417128;26;20014;-41
2024/04/21 05:19:18;;;;;;;1.83;1.00;;;13.20;95.10;;;;;;5417318;26;20032;-40
2024/04/21 05:21:44;;;;;;;1.63;0.73;;;13.20;95.10;;;;;;5415417;26;20007;-41
2024/04/21 05:24:09;;;;;;;2.08;0.98;;;13.20;95.10;;;;;;5416618;26;20014;-41
2024/04/21 05:26:35;;;;;;;2.22;1.00;;;13.20;95.10;;;;;;5418170;26;20007;-40
2024/04/21 05:29:00;;;;;;;2.22;0.98;;;13.30;95.10;;;;;;5417779;26;20010;-41
2024/04/21 05:31:26;;;;;;;2.00;0.90;;;13.20;95.10;;;;;;5417349;26;20041;-40
2024/04/21 05:33:52;;;;;;;2.10;0.85;;;13.20;95.10;;;;;;5417378;26;20011;-40
2024/04/21 05:36:17;;;;;;;1.70;0.90;;;13.20;95.10;;;;;;5417623;26;20003;-41
2024/04/21 05:38:43;;;;;;;3.70;0.98;;;13.20;95.10;;;;;;5418809;26;20346;-41
2024/04/21 05:41:08;;;;;;;3.88;1.00;;;13.20;95.10;;;;;;5417404;26;20011;-41
2024/04/21 05:43:34;;;;;;;1.90;0.75;;;13.20;95.10;;;;;;5417286;26;20072;-41
2024/04/21 05:46:03;;;;;;;1.65;0.70;;;13.20;95.10;;;;;;5418204;26;20006;-40
2024/04/21 05:48:29;;;;;;;1.85;0.80;;;13.20;95.10;;;;;;5418828;26;20007;-41
2024/04/21 05:50:55;;;;;;;3.85;1.13;;;13.20;95.10;;;;;;5416943;26;19999;-43
2024/04/21 05:53:21;;;;;;;1.55;0.73;;;13.20;95.10;;;;;;5417971;26;19996;-41
2024/04/21 05:55:47;;;;;;;1.00;0.68;;;13.20;95.20;;;;;;5417913;26;19995;-41
2024/04/21 05:58:13;;;;;;;1.38;0.80;;;13.20;95.20;;;;;;5417382;26;20004;-40
2024/04/21 06:00:39;;;;;;;1.55;0.65;;;13.20;95.10;;;;;;5417807;26;19999;-41
2024/04/21 06:03:05;;;;;;;1.77;0.80;;;13.20;95.10;;;;;;5417365;26;20472;-40
2024/04/21 06:05:32;;;;;;;2.90;0.95;;;13.20;95.10;;;;;;5417441;26;19992;-40
2024/04/21 06:07:57;;;;;;;1.92;0.93;;;13.20;95.10;;;;;;5416788;26;19999;-40
2024/04/21 06:10:25;;;;;;;2.40;0.80;;;13.20;95.10;;;;;;5416753;26;20010;-43
2024/04/21 06:12:53;;;;;;;1.88;0.77;;;13.20;95.10;;;;;;5417277;26;19999;-40
2024/04/21 06:15:20;;;;;;;1.58;0.75;;;13.20;95.10;;;;;;5416959;26;19999;-41
2024/04/21 06:17:46;;;;;;;1.42;0.70;;;13.20;95.10;;;;;;5417349;26;20036;-41
2024/04/21 06:20:11;;;;;;;2.03;0.95;;;13.20;95.10;;;;;;5417189;26;19996;-41
2024/04/21 06:22:37;;;;;;;1.30;0.68;;;13.20;95.10;;;;;;5416855;26;20452;-43
2024/04/21 06:25:03;;;;;;;2.75;0.88;;;13.20;95.10;;;;;;5416722;26;20006;-41
2024/04/21 06:27:32;;;;;;;2.35;0.80;;;13.20;95.10;;;;;;5418096;26;20007;-42
2024/04/21 06:29:58;;;;;;;1.77;0.75;;;13.20;95.10;;;;;;5415669;26;20003;-39
2024/04/21 06:32:24;;;;;;;2.13;0.90;;;13.20;95.20;;;;;;5417230;26;19995;-40
2024/04/21 06:34:49;;;;;;;2.45;0.90;;;13.20;95.20;;;;;;5417179;26;20472;-42
2024/04/21 06:37:15;;;;;;;1.33;0.82;;;13.20;95.10;;;;;;5417433;26;20006;-41
2024/04/21 06:39:41;;;;;;;1.42;0.70;;;13.20;95.10;;;;;;5415477;26;20011;-42
2024/04/21 06:42:08;;;;;;;2.92;1.05;;;13.20;95.10;;;;;;5416777;26;20030;-41
2024/04/21 06:44:34;;;;;;;2.70;0.95;;;13.10;95.10;;;;;;5416334;26;20000;-43
2024/04/21 06:47:00;;;;;;;1.77;0.82;;;13.20;95.10;;;;;;5415070;26;20006;-44
2024/04/21 06:49:26;;;;;;;1.92;1.10;;;13.10;95.10;;;;;;5416198;26;20368;-41
2024/04/21 06:51:51;;;;;;;2.13;0.88;;;13.20;95.20;;;;;;5416222;26;20022;-41
2024/04/21 06:54:17;;;;;;;1.42;0.73;;;13.20;95.20;;;;;;5416033;26;20003;-42
2024/04/21 06:56:43;;;;;;;1.48;0.85;;;13.20;95.20;;;;;;5417004;26;19995;-40
2024/04/21 06:59:08;;;;;;;2.08;0.80;;;13.20;95.20;;;;;;5415967;26;20041;-45
2024/04/21 07:01:34;;;;;;;1.65;0.80;;;13.10;95.10;;;;;;5414058;26;19996;-42
2024/04/21 07:03:59;;;;;;;2.63;0.85;;;13.20;95.20;;;;;;5415712;26;20017;-41
2024/04/21 07:06:25;;;;;;;2.50;1.05;;;13.20;95.20;;;;;;5416425;26;20000;-44
2024/04/21 07:08:51;;;;;;;1.20;0.88;;;13.20;95.10;;;;;;5416332;26;20068;-41
2024/04/21 07:11:18;;;;;;;1.85;0.80;;;13.20;95.10;;;;;;5415928;26;20000;-41
2024/04/21 07:13:43;;;;;;;2.20;0.93;;;13.20;95.10;;;;;;5416776;26;20405;-41
2024/04/21 07:16:09;;;;;;;2.10;0.90;;;13.20;95.10;;;;;;5416137;26;19999;-41
2024/04/21 07:18:35;;;;;;;1.63;0.82;;;13.20;95.10;;;;;;5416003;26;20414;-41
2024/04/21 07:21:03;;;;;;;2.95;0.88;;;13.20;95.00;;;;;;5415983;26;19995;-41
2024/04/21 07:23:29;;;;;;;3.05;0.80;;;13.20;95.10;;;;;;5415977;26;20333;-41
2024/04/21 07:25:55;;;;;;;3.75;0.80;;;13.20;95.10;;;;;;5416496;26;20003;-40
2024/04/21 07:28:20;;;;;;;2.58;1.00;;;13.20;95.10;;;;;;5416300;26;19995;-40
2024/04/21 07:30:47;;;;;;;1.67;0.90;;;13.20;95.10;;;;;;5415402;26;20007;-40
2024/04/21 07:33:13;;;;;;;2.10;0.98;;;13.20;95.10;;;;;;5416007;26;19999;-39
2024/04/21 07:35:39;;;;;;;2.70;0.80;;;13.20;95.10;;;;;;5415928;26;20426;-41
2024/04/21 07:38:04;;;;;;;2.55;1.00;;;13.20;95.10;;;;;;5415427;26;20397;-40
2024/04/21 07:40:30;;;;;;;3.33;1.13;;;13.20;95.10;;;;;;5416538;26;20010;-43
2024/04/21 07:42:55;;;;;;;2.80;1.13;;;13.20;95.10;;;;;;5415831;26;20064;-41
2024/04/21 07:45:22;;;;;;;3.10;0.95;;;13.20;95.00;;;;;;5415695;26;19999;-40
2024/04/21 07:47:48;;;;;;;2.88;1.05;;;13.20;95.00;;;;;;5415097;26;20547;-41
2024/04/21 07:50:13;;;;;;;2.15;0.80;;;13.30;95.00;;;;;;5415117;26;20011;-43
2024/04/21 07:52:39;;;;;;;2.22;0.88;;;13.30;95.00;;;;;;5416163;26;19999;-40
2024/04/21 07:55:05;;;;;;;4.18;1.10;;;13.30;95.00;;;;;;5416073;26;20441;-40
2024/04/21 07:57:30;;;;;;;3.40;1.27;;;13.30;95.00;;;;;;5415610;26;19996;-40
2024/04/21 07:59:56;;;;;;;3.75;1.20;;;13.30;95.00;;;;;;5415493;26;20452;-44
2024/04/21 08:02:22;;;;;;;4.95;1.30;;;13.30;95.00;;;;;;5415193;26;20068;-40
2024/04/21 08:04:47;;;;;;;4.90;1.45;;;13.30;95.00;;;;;;5415020;26;19992;-41
2024/04/21 08:07:13;;;;;;;4.43;1.15;;;13.30;95.00;;;;;;5416064;26;20010;-40
2024/04/21 08:09:39;;;;;;;3.80;1.02;;;13.30;95.00;;;;;;5416055;26;19999;-40
2024/04/21 08:12:05;;;;;;;3.72;1.00;;;13.30;95.00;;;;;;5415618;26;19992;-44
2024/04/21 08:14:30;;;;;;;2.78;0.85;;;13.30;95.00;;;;;;5416134;26;19999;-40
2024/04/21 08:16:57;;;;;;;1.75;0.85;;;13.20;95.00;;;;;;5414725;26;20441;-43
2024/04/21 08:19:23;;;;;;;2.58;1.10;;;13.20;95.10;;;;;;5414402;26;20018;-41
2024/04/21 08:21:48;;;;;;;4.50;1.02;;;13.20;95.10;;;;;;5419461;26;20011;-43
2024/04/21 08:24:14;;;;;;;3.22;1.10;;;13.20;95.10;;;;;;5418171;26;20000;-43
2024/04/21 08:26:40;;;;;;;1.48;1.00;;;13.30;95.10;;;;;;5419022;26;20045;-40
2024/04/21 08:29:05;;;;;;;1.75;0.85;;;13.20;95.10;;;;;;5418111;26;19995;-42
2024/04/21 08:31:31;;;;;;;2.80;0.93;;;13.20;95.10;;;;;;5418575;26;20072;-42
2024/04/21 08:33:56;;;;;;;1.92;0.90;;;13.20;95.10;;;;;;5418375;26;20355;-42
2024/04/21 08:36:22;;;;;;;3.05;1.23;;;13.20;95.10;;;;;;5418713;26;19995;-40
2024/04/21 08:38:48;;;;;;;2.90;1.08;;;13.20;95.20;;;;;;5418897;26;20064;-41
2024/04/21 08:41:17;;;;;;;3.10;1.00;;;13.20;95.20;;;;;;5418479;26;20514;-40
2024/04/21 08:43:44;;;;;;;2.22;1.20;;;13.20;95.20;;;;;;5417795;26;20336;-41
2024/04/21 08:46:11;;;;;;;2.53;0.95;;;13.20;95.20;;;;;;5418462;26;19995;-41
2024/04/21 08:48:37;;;;;;;2.42;0.98;;;13.20;95.20;;;;;;5418542;26;20003;-41
2024/04/21 08:51:05;;;;;;;4.35;1.17;;;13.20;95.20;;;;;;5418077;26;20010;-40
2024/04/21 08:53:30;;;;;;;2.85;1.13;;;13.30;95.20;;;;;;5417979;26;20003;-40
2024/04/21 08:56:00;;;;;;;3.00;0.90;;;13.30;95.10;;;;;;5417726;26;20010;-41
2024/04/21 08:58:26;;;;;;;3.10;1.10;;;13.30;95.10;;;;;;5418627;26;20000;-43
2024/04/21 09:00:55;;;;;;;3.25;1.02;;;13.30;95.00;;;;;;5418431;26;20068;-44
2024/04/21 09:03:21;;;;;;;3.13;1.10;;;13.30;95.00;;;;;;5418177;26;20073;-40
2024/04/21 09:05:56;;;;;;;2.53;1.10;;;13.40;95.00;;;;;;5418232;26;20400;-41
2024/04/21 09:08:22;;;;;;;2.33;1.08;;;13.40;95.00;;;;;;5418259;26;19995;-40
2024/04/21 09:10:48;;;;;;;2.38;0.82;;;13.30;95.00;;;;;;5418457;26;20007;-42
2024/04/21 09:13:14;;;;;;;2.60;0.80;;;13.40;95.00;;;;;;5417393;26;20010;-41
2024/04/21 09:15:41;;;;;;;3.65;1.17;;;13.40;94.90;;;;;;5418844;26;20063;-41
2024/04/21 09:18:06;;;;;;;3.15;1.25;;;13.40;94.90;;;;;;5417083;26;20007;-41
2024/04/21 09:20:34;;;;;;;2.05;1.02;;;13.50;94.90;;;;;;5417589;26;19996;-40
2024/04/21 09:23:00;;;;;;;1.52;0.88;;;13.50;94.80;;;;;;5418112;26;20000;-44
2024/04/21 09:25:26;;;;;;;3.20;1.23;;;13.50;94.80;;;;;;5418051;26;20041;-43
2024/04/21 09:27:51;;;;;;;2.58;1.00;;;13.60;94.80;;;;;;5417191;26;20043;-40
2024/04/21 09:30:18;;;;;;;2.20;1.05;;;13.50;94.80;;;;;;5415731;26;20011;-41
2024/04/21 09:32:44;;;;;;;2.35;1.05;;;13.50;94.80;;;;;;5418435;26;19995;-42
2024/04/21 09:35:10;;;;;;;3.50;1.20;;;13.50;94.80;;;;;;5418138;26;20010;-43
2024/04/21 09:37:42;;;;;;;5.10;1.05;;;13.50;94.90;;;;;;5417393;26;19995;-43
2024/04/21 09:40:08;;;;;;;2.72;1.00;;;13.50;94.80;;;;;;5417848;26;20449;-41
2024/04/21 09:42:34;;;;;;;1.95;1.00;;;13.50;94.80;;;;;;5417078;26;20046;-40
2024/04/21 09:45:01;;;;;;;3.63;1.00;;;13.50;94.80;;;;;;5417713;26;20060;-42
2024/04/21 09:47:28;;;;;;;3.45;1.10;;;13.50;95.20;;;;;;5417223;26;20011;-42
2024/04/21 09:49:55;;;;;;;2.92;1.13;;;13.50;94.90;;;;;;5416957;26;19995;-43
2024/04/21 09:52:23;;;;;;;1.08;0.60;;;13.50;95.20;;;;;;5417617;26;20010;-45
2024/04/21 09:54:49;;;;;;;2.28;1.05;;;13.50;94.80;;;;;;5417273;26;20045;-40
2024/04/21 09:57:19;;;;;;;2.95;0.88;;;13.60;94.80;;;;;;5416684;26;20460;-42
2024/04/21 09:59:47;;;;;;;3.30;0.98;;;13.60;94.80;;;;;;5417118;26;19999;-41
2024/04/21 10:02:19;;;;;;;3.28;1.10;;;13.60;94.80;;;;;;5417509;26;19995;-41
2024/04/21 10:05:08;;;;;;;1.58;1.00;;;13.60;94.80;;;;;;5417476;26;19995;-43
2024/04/21 10:07:38;;;;;;;1.92;0.95;;;13.60;94.70;;;;;;5417617;26;20352;-41
2024/04/21 10:10:20;;;;;;;2.33;0.98;;;13.60;94.80;;;;;;5416610;26;20007;-40
2024/04/21 10:12:46;;;;;;;2.20;1.10;;;13.50;94.80;;;;;;5417201;26;20007;-41
2024/04/21 10:15:14;;;;;;;4.13;1.23;;;13.60;95.20;;;;;;5417160;26;19996;-41
2024/04/21 10:17:52;;;;;;;2.70;1.08;;;13.60;95.20;;;;;;5416755;26;20379;-40
2024/04/21 10:20:27;;;;;;;3.40;0.90;;;13.60;94.80;;;;;;5417342;26;20015;-41
2024/04/21 10:23:00;;;;;;;2.35;0.90;;;13.50;94.80;;;;;;5417854;26;20328;-40
2024/04/21 10:25:31;;;;;;;1.83;1.05;;;13.60;94.80;;;;;;5416861;26;20068;-42
2024/04/21 10:28:13;;;;;;;2.30;1.13;;;13.60;94.80;;;;;;5417176;26;19999;-41
2024/04/21 10:30:40;;;;;;;1.85;0.90;;;13.70;94.70;;;;;;5417357;26;20000;-41
2024/04/21 10:33:10;;;;;;;1.88;0.93;;;13.70;94.70;;;;;;5416853;26;20006;-40
2024/04/21 10:35:40;;;;;;;2.60;1.17;;;13.70;94.80;;;;;;5417186;26;20010;-41
2024/04/21 10:38:05;;;;;;;3.53;1.00;;;13.70;94.80;;;;;;5416783;26;20008;-41
2024/04/21 10:40:31;;;;;;;3.65;1.00;;;13.60;94.80;;;;;;5416225;26;19995;-40
2024/04/21 10:42:57;;;;;;;3.53;1.10;;;13.60;94.90;;;;;;5416199;26;19995;-42
2024/04/21 10:45:23;;;;;;;2.75;1.10;;;13.70;94.90;;;;;;5416974;26;19996;-40
2024/04/21 10:47:48;;;;;;;1.83;0.93;;;13.70;94.90;;;;;;5416165;26;19999;-41
2024/04/21 10:50:15;;;;;;;2.40;1.13;;;13.70;94.80;;;;;;5416742;26;20384;-43
2024/04/21 10:52:41;;;;;;;2.45;0.88;;;13.70;94.80;;;;;;5416850;26;20011;-41
2024/04/21 10:55:06;;;;;;;2.55;1.05;;;13.80;94.80;;;;;;5417022;26;20069;-41
2024/04/21 10:57:33;;;;;;;3.20;1.30;;;13.80;94.80;;;;;;5417587;26;19996;-42
2024/04/21 10:59:58;;;;;;;2.45;1.00;;;13.80;94.70;;;;;;5416111;26;20571;-42
2024/04/21 11:02:24;;;;;;;3.50;1.33;;;13.80;94.80;;;;;;5415918;26;20011;-40
2024/04/21 11:04:50;;;;;;;2.60;1.00;;;13.80;94.70;;;;;;5416021;26;19995;-40
2024/04/21 11:07:16;;;;;;;2.83;1.10;;;13.90;94.70;;;;;;5416120;26;19999;-41
2024/04/21 11:09:42;;;;;;;1.77;0.85;;;13.90;94.70;;;;;;5415937;26;19999;-40
2024/04/21 11:12:09;;;;;;;2.58;1.20;;;13.90;94.70;;;;;;5416306;26;19996;-43
2024/04/21 11:14:34;;;;;;;2.72;1.10;;;13.90;94.60;;;;;;5416108;26;20069;-41
2024/04/21 11:17:01;;;;;;;4.50;0.93;;;13.90;94.60;;;;;;5415766;26;20031;-41
2024/04/21 11:19:29;;;;;;;2.85;1.13;;;13.90;94.60;;;;;;5417383;26;20041;-40
2024/04/21 11:21:55;;;;;;;2.30;1.00;;;13.90;94.60;;;;;;5416443;26;19996;-41
2024/04/21 11:24:21;;;;;;;2.97;1.17;;;13.90;94.60;;;;;;5416284;26;20506;-40
2024/04/21 11:26:46;;;;;;;3.22;0.90;;;14.00;94.60;;;;;;5416112;26;20026;-42
2024/04/21 11:29:12;;;;;;;1.50;0.80;;;14.00;94.50;;;;;;5415915;26;19996;-40
2024/04/21 11:31:38;;;;;;;2.78;0.80;;;13.90;94.50;;;;;;5415791;26;20010;-41
2024/04/21 11:34:04;;;;;;;2.90;1.10;;;14.00;94.50;;;;;;5416431;26;20445;-42
2024/04/21 11:36:31;;;;;;;2.08;0.93;;;14.00;94.50;;;;;;5415848;26;20010;-42
2024/04/21 11:38:56;;;;;;;1.50;0.77;;;14.10;94.50;;;;;;5415564;26;19999;-40
2024/04/21 11:41:22;;;;;;;2.25;0.90;;;14.10;94.50;;;;;;5416778;26;20022;-41
2024/04/21 11:43:53;;;;;;;2.45;1.00;;;14.10;94.40;;;;;;5416221;26;19995;-41
2024/04/21 11:46:18;;;;;;;3.25;1.00;;;14.10;94.40;;;;;;5416057;26;20077;-41
2024/04/21 11:48:52;;;;;;;2.15;1.00;;;14.10;94.40;;;;;;5416104;26;20004;-41
2024/04/21 11:51:18;;;;;;;4.77;1.00;;;14.10;94.40;;;;;;5415665;26;20007;-42
2024/04/21 11:53:44;;;;;;;2.70;1.02;;;14.10;94.30;;;;;;5417168;26;20008;-41
2024/04/21 11:56:09;;;;;;;2.53;0.90;;;14.10;94.30;;;;;;5419994;26;20011;-40
2024/04/21 11:58:35;;;;;;;3.55;0.82;;;14.10;94.30;;;;;;5418791;26;20414;-40
2024/04/21 12:01:03;;;;;;;1.45;0.80;;;14.10;94.30;;;;;;5418687;26;20000;-42
2024/04/21 12:03:28;;;;;;;1.17;0.77;;;14.10;94.20;;;;;;5419002;26;19996;-41
2024/04/21 12:05:54;;;;;;;3.83;1.00;;;14.10;94.50;;;;;;5418572;26;20003;-42
2024/04/21 12:08:20;;;;;;;1.88;1.10;;;14.20;94.20;;;;;;5418753;26;20011;-41
2024/04/21 12:10:45;;;;;;;2.95;1.00;;;14.20;94.10;;;;;;5418845;26;20445;-41
2024/04/21 12:13:11;;;;;;;2.22;0.90;;;14.20;94.10;;;;;;5418964;26;20007;-44
2024/04/21 12:15:37;;;;;;;2.70;1.00;;;14.20;94.10;;;;;;5418486;26;20340;-42
2024/04/21 12:18:07;;;;;;;2.30;1.00;;;14.20;94.10;;;;;;5418666;26;19999;-42
2024/04/21 12:20:32;;;;;;;1.67;0.88;;;14.30;94.00;;;;;;5419029;26;20040;-40
2024/04/21 12:22:58;;;;;;;2.53;1.15;;;14.40;94.00;;;;;;5418926;26;20628;-41
2024/04/21 12:25:23;;;;;;;2.25;0.80;;;14.40;93.90;;;;;;5418425;26;20010;-42
2024/04/21 12:27:49;;;;;;;3.05;1.17;;;14.50;93.80;;;;;;5418915;26;20001;-42
2024/04/21 12:30:15;;;;;;;2.22;1.00;;;14.50;93.70;;;;;;5418685;26;20003;-42
2024/04/21 12:32:40;;;;;;;2.78;0.95;;;14.60;93.70;;;;;;5418863;26;19999;-42
2024/04/21 12:35:06;;;;;;;2.97;1.00;;;14.60;93.60;;;;;;5418480;26;19996;-40
2024/04/21 12:37:31;;;;;;;3.55;0.85;;;14.70;93.60;;;;;;5418436;26;20043;-42
2024/04/21 12:39:57;;;;;;;1.45;0.90;;;14.70;93.50;;;;;;5418127;26;19999;-42
2024/04/21 12:42:23;;;;;;;2.80;0.93;;;14.80;93.50;;;;;;5415938;26;20458;-41